Terminal Aerodrome Forecast
Issued by NWS

Home | Current Version | Previous Version | Text Only | Print | Product List | Glossary On
Versions: 1 2 3 4 5 6 7 8 9 10 11 12 13 14 15 16
790
FTUS42 TJSJ 232334
TAFIST
TAF
TIST 232334Z 2400/2424 13006KT P6SM VCSH SCT070 OVC110
     FM241300 14012KT P6SM VCSH FEW023 SCT035 SCT080
     FM242300 10007KT P6SM VCSH SCT030 SCT060=

USA.gov is the U.S. government's official web portal to all federal, state and local government web resources and services.